Time;durP1;ratioP1;P1;durP2;ratioP2;P2;SDS_P1;SDS_P2;PMS_P1;PMS_P2;Temp;Humidity;BMP_temperature;BMP_pressure;BME280_temperature;BME280_humidity;BME280_pressure;Samples;Min_cycle;Max_cycle;Signal;HPM_P1;HPM_P2
2021/10/15 00:01:47;;;;;;;7.38;6.45;;;14.10;70.00;;;;;;4983049;28;1196408;-88
2021/10/15 00:04:13;;;;;;;6.63;5.38;;;14.10;70.00;;;;;;5043931;28;20033;-88
2021/10/15 00:06:39;;;;;;;6.13;5.53;;;14.10;70.10;;;;;;5013191;28;20526;-88
2021/10/15 00:09:05;;;;;;;6.15;5.40;;;14.10;70.00;;;;;;5028953;28;20040;-90
2021/10/15 00:11:31;;;;;;;6.82;5.00;;;14.10;69.90;;;;;;5032554;28;20094;-87
2021/10/15 00:13:57;;;;;;;7.30;4.60;;;14.10;69.90;;;;;;5032047;28;20033;-87
2021/10/15 00:16:22;;;;;;;4.70;4.20;;;14.10;69.90;;;;;;5014204;28;20018;-86
2021/10/15 00:18:48;;;;;;;4.25;3.78;;;14.10;70.00;;;;;;5012283;28;20029;-86
2021/10/15 00:21:14;;;;;;;5.35;3.28;;;14.10;69.90;;;;;;5006373;28;20029;-87
2021/10/15 00:23:40;;;;;;;3.92;3.58;;;14.10;69.90;;;;;;5044732;28;20190;-86
2021/10/15 00:26:06;;;;;;;3.17;2.88;;;14.10;69.80;;;;;;5040330;28;20025;-86
2021/10/15 00:28:32;;;;;;;4.55;2.60;;;14.10;69.90;;;;;;5028420;28;20423;-88
2021/10/15 00:30:58;;;;;;;2.75;2.42;;;14.10;69.90;;;;;;5029413;28;20036;-87
2021/10/15 00:33:24;;;;;;;2.25;2.00;;;14.20;69.90;;;;;;5021149;28;20064;-88
2021/10/15 00:35:50;;;;;;;2.50;2.10;;;14.20;69.70;;;;;;5042628;28;20053;-87
2021/10/15 00:38:18;;;;;;;2.47;1.98;;;14.20;69.60;;;;;;5043720;28;20025;-87
2021/10/15 00:40:44;;;;;;;2.10;1.90;;;14.20;69.40;;;;;;5027691;28;20709;-87
2021/10/15 00:43:10;;;;;;;1.85;1.63;;;14.20;69.30;;;;;;5013195;28;20024;-87
2021/10/15 00:45:36;;;;;;;2.20;1.70;;;14.20;69.30;;;;;;5000974;28;20404;-87
2021/10/15 00:48:02;;;;;;;2.85;1.85;;;14.20;69.10;;;;;;5016986;28;20048;-87
2021/10/15 00:50:28;;;;;;;1.60;1.50;;;14.20;69.00;;;;;;5027918;28;20148;-87
2021/10/15 00:52:54;;;;;;;1.40;1.30;;;14.20;69.00;;;;;;5024020;28;20116;-87
2021/10/15 00:55:20;;;;;;;2.05;1.20;;;14.20;68.70;;;;;;5014914;28;20139;-86
2021/10/15 00:57:47;;;;;;;1.20;1.08;;;14.30;68.80;;;;;;5010986;28;20025;-87
2021/10/15 01:00:13;;;;;;;1.38;1.20;;;14.20;68.60;;;;;;5010057;28;20158;-87
2021/10/15 01:02:43;;;;;;;2.08;1.35;;;14.30;68.70;;;;;;5044196;28;20407;-88
2021/10/15 01:05:10;;;;;;;1.30;1.20;;;14.30;68.70;;;;;;5022521;28;20119;-86
2021/10/15 01:07:37;;;;;;;1.08;0.98;;;14.30;68.50;;;;;;5041532;28;20483;-88
2021/10/15 01:10:04;;;;;;;1.00;0.90;;;14.30;68.70;;;;;;5011568;28;20029;-86
2021/10/15 01:12:31;;;;;;;0.98;0.95;;;14.30;68.70;;;;;;5028564;28;20065;-88
2021/10/15 01:14:57;;;;;;;2.55;1.38;;;14.30;68.90;;;;;;5007651;28;20135;-89
2021/10/15 01:17:23;;;;;;;1.27;1.17;;;14.30;68.90;;;;;;5029509;28;20411;-87
2021/10/15 01:19:54;;;;;;;1.50;1.00;;;14.30;69.10;;;;;;5044443;28;20128;-88
2021/10/15 01:22:20;;;;;;;2.08;1.00;;;14.30;68.60;;;;;;5014468;28;20094;-88
2021/10/15 01:24:46;;;;;;;0.77;0.77;;;14.30;68.30;;;;;;5011424;28;20025;-88
2021/10/15 01:27:12;;;;;;;2.10;0.98;;;14.30;68.10;;;;;;5025906;28;20033;-87
2021/10/15 01:29:38;;;;;;;0.65;0.65;;;14.30;67.70;;;;;;5032311;28;20033;-89
2021/10/15 01:32:10;;;;;;;1.13;0.75;;;14.30;67.50;;;;;;5023789;28;20064;-87
2021/10/15 01:34:36;;;;;;;0.88;0.80;;;14.20;67.30;;;;;;5026934;28;20029;-87
2021/10/15 01:37:03;;;;;;;0.70;0.70;;;14.20;67.20;;;;;;5011256;28;20124;-87
2021/10/15 01:39:29;;;;;;;1.60;0.90;;;14.20;67.20;;;;;;5031015;28;20029;-87
2021/10/15 01:41:55;;;;;;;0.70;0.70;;;14.20;67.00;;;;;;5015230;28;20075;-88
2021/10/15 01:44:21;;;;;;;1.33;1.00;;;14.20;67.00;;;;;;5045260;28;20036;-86
2021/10/15 01:46:48;;;;;;;0.85;0.85;;;14.20;66.90;;;;;;5025220;28;20369;-86
2021/10/15 01:49:14;;;;;;;0.70;0.70;;;14.20;66.80;;;;;;5009618;28;20082;-86
2021/10/15 01:51:40;;;;;;;0.70;0.70;;;14.20;66.80;;;;;;5009828;28;20112;-86
2021/10/15 01:54:06;;;;;;;0.50;0.50;;;14.20;67.00;;;;;;5027371;28;20468;-86
2021/10/15 01:56:37;;;;;;;0.70;0.70;;;14.20;66.90;;;;;;5014676;28;20051;-86
2021/10/15 01:59:05;;;;;;;0.57;0.57;;;14.20;66.90;;;;;;5031011;28;20039;-87
2021/10/15 02:01:32;;;;;;;0.70;0.70;;;14.20;67.20;;;;;;5027970;28;20059;-85
2021/10/15 02:03:58;;;;;;;0.65;0.57;;;14.20;67.00;;;;;;5026415;28;20557;-85
2021/10/15 02:06:25;;;;;;;0.50;0.50;;;14.20;67.10;;;;;;5026583;28;20060;-85
2021/10/15 02:08:51;;;;;;;0.70;0.70;;;14.20;67.10;;;;;;5014707;28;20083;-86
2021/10/15 02:11:16;;;;;;;0.55;0.55;;;14.30;67.40;;;;;;5014102;28;20025;-85
2021/10/15 02:13:43;;;;;;;0.88;0.52;;;14.30;67.60;;;;;;5030589;28;20116;-86
2021/10/15 02:16:09;;;;;;;0.57;0.57;;;14.30;67.20;;;;;;5030133;28;20116;-86
2021/10/15 02:18:34;;;;;;;0.40;0.40;;;14.30;66.90;;;;;;5030156;28;20127;-86
2021/10/15 02:21:00;;;;;;;0.40;0.40;;;14.30;66.50;;;;;;5029929;28;20480;-85
2021/10/15 02:23:26;;;;;;;0.70;0.52;;;14.30;66.70;;;;;;5030590;28;20040;-87
2021/10/15 02:25:53;;;;;;;0.50;0.50;;;14.30;66.40;;;;;;5027568;28;20542;-86
2021/10/15 02:28:19;;;;;;;0.50;0.50;;;14.30;66.30;;;;;;5043612;28;20407;-87
2021/10/15 02:30:45;;;;;;;0.50;0.50;;;14.30;66.30;;;;;;5009578;28;20033;-86
2021/10/15 02:33:12;;;;;;;0.68;0.68;;;14.20;66.00;;;;;;5045421;28;20025;-86
2021/10/15 02:35:38;;;;;;;0.98;0.75;;;14.20;65.70;;;;;;5043720;28;20080;-86
2021/10/15 02:38:04;;;;;;;0.40;0.40;;;14.20;65.70;;;;;;5027033;28;20052;-85
2021/10/15 02:40:32;;;;;;;0.98;0.60;;;14.20;65.60;;;;;;5043026;28;20033;-87
2021/10/15 02:42:58;;;;;;;0.60;0.60;;;14.10;65.50;;;;;;5029486;28;20037;-86
2021/10/15 02:45:24;;;;;;;0.60;0.60;;;14.10;65.70;;;;;;5027930;28;20060;-87
2021/10/15 02:47:50;;;;;;;0.60;0.60;;;14.10;65.50;;;;;;5044704;28;20479;-87
2021/10/15 02:50:17;;;;;;;0.80;0.80;;;14.00;65.60;;;;;;5044891;28;20037;-86
2021/10/15 02:52:43;;;;;;;0.77;0.60;;;14.00;65.60;;;;;;5030982;28;20037;-86
2021/10/15 02:55:09;;;;;;;0.73;0.57;;;14.00;65.50;;;;;;5010211;28;20125;-84
2021/10/15 02:57:35;;;;;;;0.60;0.55;;;14.00;65.60;;;;;;5025953;28;20122;-85
2021/10/15 03:00:01;;;;;;;1.02;0.80;;;14.00;65.60;;;;;;5044082;28;20068;-88
2021/10/15 03:02:27;;;;;;;0.70;0.70;;;14.00;65.90;;;;;;5006732;28;20037;-86
2021/10/15 03:04:53;;;;;;;1.65;0.60;;;14.00;65.90;;;;;;5029793;28;20035;-87
2021/10/15 03:07:19;;;;;;;0.93;0.80;;;14.00;65.70;;;;;;5044001;28;20508;-86
2021/10/15 03:09:48;;;;;;;1.50;0.90;;;14.00;65.60;;;;;;5012808;28;20033;-85
2021/10/15 03:12:14;;;;;;;1.40;0.70;;;14.00;65.70;;;;;;5043368;28;20037;-85
2021/10/15 03:14:40;;;;;;;0.95;0.80;;;14.00;65.70;;;;;;5041241;28;20531;-85
2021/10/15 03:17:06;;;;;;;1.48;0.88;;;14.00;65.70;;;;;;5009731;28;20021;-86
2021/10/15 03:19:33;;;;;;;1.05;1.00;;;14.00;65.80;;;;;;5045260;28;20088;-87
2021/10/15 03:21:59;;;;;;;1.30;1.20;;;13.90;65.50;;;;;;5026397;28;20026;-86
2021/10/15 03:24:25;;;;;;;1.20;1.10;;;13.90;65.20;;;;;;5044872;28;20047;-87
2021/10/15 03:26:51;;;;;;;1.10;1.10;;;13.90;65.40;;;;;;5025388;28;20063;-86
2021/10/15 03:29:16;;;;;;;1.23;1.13;;;13.90;65.40;;;;;;5029577;28;21444;-87
2021/10/15 03:31:42;;;;;;;2.33;1.48;;;14.00;65.50;;;;;;5028991;28;20024;-87
2021/10/15 03:34:08;;;;;;;2.70;1.50;;;13.90;65.40;;;;;;5024238;28;20025;-87
2021/10/15 03:36:34;;;;;;;1.90;1.70;;;13.90;65.30;;;;;;5044466;28;20033;-86
2021/10/15 03:39:00;;;;;;;1.67;1.58;;;13.90;65.40;;;;;;5024616;28;20044;-86
2021/10/15 03:41:26;;;;;;;2.22;2.03;;;13.90;65.50;;;;;;5014487;28;20029;-88
2021/10/15 03:43:52;;;;;;;1.70;1.38;;;13.90;65.40;;;;;;5056932;28;20036;-88
2021/10/15 03:46:18;;;;;;;1.95;1.80;;;13.80;65.40;;;;;;5039383;28;20091;-87
2021/10/15 03:48:44;;;;;;;2.30;2.10;;;13.90;65.30;;;;;;5016700;28;20553;-87
2021/10/15 03:51:10;;;;;;;3.42;2.13;;;13.80;65.20;;;;;;5027410;28;20025;-87
2021/10/15 03:53:36;;;;;;;2.50;2.30;;;13.80;65.30;;;;;;5012561;28;20425;-85
2021/10/15 03:56:02;;;;;;;2.28;2.05;;;13.80;65.20;;;;;;5028190;28;20135;-87
2021/10/15 03:58:28;;;;;;;2.25;2.05;;;13.80;65.10;;;;;;5042963;28;20053;-87
2021/10/15 04:00:54;;;;;;;2.72;2.47;;;13.80;65.20;;;;;;5026654;28;20087;-85
2021/10/15 04:03:20;;;;;;;2.40;2.17;;;13.80;65.20;;;;;;5011300;28;20026;-85
2021/10/15 04:05:46;;;;;;;3.17;2.22;;;13.80;65.20;;;;;;5041640;28;20025;-85
2021/10/15 04:08:13;;;;;;;4.43;2.63;;;13.90;66.00;;;;;;5042188;28;20029;-84
2021/10/15 04:10:39;;;;;;;2.72;2.53;;;13.80;65.20;;;;;;5027963;28;20042;-89
2021/10/15 04:13:05;;;;;;;2.85;2.65;;;13.80;65.10;;;;;;5024770;28;20029;-86
2021/10/15 04:15:31;;;;;;;2.55;2.35;;;13.80;65.20;;;;;;5041305;28;20060;-85
2021/10/15 04:17:57;;;;;;;3.47;2.63;;;13.80;65.30;;;;;;5026750;28;20149;-85
2021/10/15 04:20:23;;;;;;;3.10;2.80;;;13.80;65.50;;;;;;5028339;28;20488;-84
2021/10/15 04:22:49;;;;;;;2.70;2.50;;;13.80;65.50;;;;;;5043814;28;20037;-86
2021/10/15 04:25:14;;;;;;;2.88;2.58;;;13.90;65.50;;;;;;5012029;28;20136;-85
2021/10/15 04:27:40;;;;;;;3.47;3.17;;;13.90;65.40;;;;;;5009019;28;20082;-87
2021/10/15 04:30:07;;;;;;;2.90;2.55;;;13.90;65.40;;;;;;5026895;28;20087;-86
2021/10/15 04:32:33;;;;;;;4.22;2.90;;;13.90;65.30;;;;;;5028321;28;20032;-86
2021/10/15 04:34:59;;;;;;;3.97;3.40;;;13.90;65.30;;;;;;5007083;28;20079;-86
2021/10/15 04:37:25;;;;;;;3.40;2.88;;;13.90;65.40;;;;;;5006592;28;20036;-86
2021/10/15 04:39:50;;;;;;;3.97;2.97;;;13.90;65.60;;;;;;5027455;28;20129;-88
2021/10/15 04:42:16;;;;;;;5.53;3.20;;;13.90;66.10;;;;;;5044337;28;20037;-83
2021/10/15 04:44:42;;;;;;;5.25;3.10;;;13.90;65.50;;;;;;5043134;28;20518;-85
2021/10/15 04:47:08;;;;;;;3.92;3.03;;;13.90;65.30;;;;;;5023189;28;20055;-89
2021/10/15 04:49:34;;;;;;;3.35;3.05;;;13.90;65.20;;;;;;5013465;28;20119;-88
2021/10/15 04:52:00;;;;;;;3.38;3.03;;;13.90;65.20;;;;;;5042524;28;20025;-87
2021/10/15 04:54:26;;;;;;;3.65;3.00;;;13.90;65.30;;;;;;5014894;28;20029;-89
2021/10/15 04:56:52;;;;;;;3.30;2.95;;;13.90;65.30;;;;;;5048566;28;20493;-90
2021/10/15 04:59:18;;;;;;;4.93;3.47;;;13.90;65.40;;;;;;5031718;28;20407;-89
2021/10/15 05:01:44;;;;;;;3.65;3.10;;;13.90;65.40;;;;;;5045293;28;20477;-88
2021/10/15 05:04:11;;;;;;;3.90;3.05;;;13.90;65.40;;;;;;5028273;28;20075;-88
2021/10/15 05:06:38;;;;;;;4.40;3.05;;;13.90;65.50;;;;;;5044822;28;20033;-83
2021/10/15 05:11:34;;;;;;;3.35;3.03;;;13.90;65.50;;;;;;5028673;28;20033;-87
2021/10/15 05:14:01;;;;;;;3.75;3.15;;;13.90;65.60;;;;;;5027176;28;20029;-85
2021/10/15 05:16:27;;;;;;;4.75;3.30;;;13.80;65.50;;;;;;5028717;28;20025;-85
2021/10/15 05:18:53;;;;;;;4.78;3.20;;;13.90;65.50;;;;;;5033366;28;20409;-87
2021/10/15 05:21:19;;;;;;;3.72;3.25;;;13.80;65.40;;;;;;5045139;28;20033;-85
2021/10/15 05:23:45;;;;;;;3.22;2.92;;;13.80;65.20;;;;;;5029503;28;20256;-86
2021/10/15 05:26:11;;;;;;;3.40;2.80;;;13.80;65.10;;;;;;5029971;28;20033;-83
2021/10/15 05:28:37;;;;;;;4.90;3.45;;;13.80;65.00;;;;;;5037695;28;20033;-84
2021/10/15 05:31:03;;;;;;;5.22;3.50;;;13.80;65.00;;;;;;5053930;28;20034;-83
2021/10/15 05:33:29;;;;;;;3.92;3.35;;;13.70;64.90;;;;;;5054755;28;20503;-84
2021/10/15 05:35:55;;;;;;;3.72;3.33;;;13.70;65.00;;;;;;5037440;28;20029;-84
2021/10/15 05:38:21;;;;;;;7.13;3.65;;;13.70;65.10;;;;;;5069425;28;20052;-90
2021/10/15 05:40:47;;;;;;;5.47;4.00;;;13.60;65.60;;;;;;5062265;28;20085;-87
2021/10/15 05:43:13;;;;;;;5.55;4.03;;;13.70;66.50;;;;;;5068185;28;20029;-93
2021/10/15 05:45:39;;;;;;;4.30;3.72;;;13.60;66.10;;;;;;5066539;28;20056;-95
2021/10/15 05:48:05;;;;;;;5.90;3.58;;;13.60;66.20;;;;;;5042460;28;20033;-91
2021/10/15 05:50:31;;;;;;;6.70;3.90;;;13.60;66.30;;;;;;5035650;28;20037;-90
2021/10/15 05:53:05;;;;;;;5.97;4.75;;;13.50;66.40;;;;;;5032484;28;20033;-87
2021/10/15 05:55:41;;;;;;;8.57;6.60;;;13.50;66.60;;;;;;5031531;28;20067;-90
2021/10/15 06:00:51;;;;;;;7.45;4.82;;;13.40;66.80;;;;;;5039439;28;19943;-93
2021/10/15 06:03:22;;;;;;;6.25;4.65;;;13.30;66.80;;;;;;5004864;28;20432;-84
2021/10/15 06:16:46;;;;;;;4.65;3.80;;;13.20;67.30;;;;;;5036144;28;20049;-90
2021/10/15 06:19:13;;;;;;;5.03;3.67;;;13.20;68.10;;;;;;4997024;28;20029;-93
2021/10/15 06:21:39;;;;;;;6.05;3.90;;;13.20;67.40;;;;;;4999305;28;20455;-91
2021/10/15 06:24:05;;;;;;;4.68;3.88;;;13.20;67.50;;;;;;4997274;28;20033;-92
2021/10/15 06:26:31;;;;;;;5.60;4.05;;;13.20;67.40;;;;;;5026322;28;20063;-92
2021/10/15 06:28:56;;;;;;;5.90;4.18;;;13.20;67.40;;;;;;5017950;28;20081;-92
2021/10/15 06:31:23;;;;;;;6.85;4.20;;;13.20;67.50;;;;;;5009464;28;20057;-89
2021/10/15 06:33:48;;;;;;;5.63;3.65;;;13.20;68.50;;;;;;5021713;28;20021;-88
2021/10/15 06:36:14;;;;;;;6.20;3.83;;;13.30;69.30;;;;;;5055689;28;20052;-87
2021/10/15 06:38:40;;;;;;;3.78;3.35;;;13.30;69.50;;;;;;5019819;28;20045;-93
2021/10/15 06:41:06;;;;;;;4.07;3.63;;;13.30;69.70;;;;;;5002695;28;20033;-91
2021/10/15 06:43:32;;;;;;;8.25;4.05;;;13.30;69.70;;;;;;5014739;28;20447;-91
2021/10/15 06:45:58;;;;;;;7.82;4.38;;;13.40;69.70;;;;;;5016430;28;20059;-87
2021/10/15 06:48:24;;;;;;;4.20;3.65;;;13.40;69.90;;;;;;5000085;28;20032;-92
2021/10/15 06:50:50;;;;;;;6.15;3.80;;;13.50;69.50;;;;;;4998743;28;20423;-89
2021/10/15 06:53:16;;;;;;;4.10;3.58;;;13.50;69.30;;;;;;5015720;28;20034;-93
2021/10/15 06:55:42;;;;;;;4.03;3.38;;;13.60;69.30;;;;;;5012286;28;20041;-92
2021/10/15 06:58:08;;;;;;;5.43;3.58;;;13.60;69.80;;;;;;5031534;28;20030;-90
2021/10/15 07:00:33;;;;;;;4.93;3.22;;;13.60;68.80;;;;;;5044298;28;20495;-90
2021/10/15 07:02:59;;;;;;;3.97;3.00;;;13.60;68.60;;;;;;5030271;28;20409;-92
2021/10/15 07:05:25;;;;;;;13.38;8.43;;;13.60;68.60;;;;;;5034526;28;20044;-91
2021/10/15 07:07:52;;;;;;;5.82;4.60;;;13.60;68.60;;;;;;5037066;28;20032;-91
2021/10/15 07:10:17;;;;;;;8.32;4.82;;;13.70;68.60;;;;;;5036891;28;20040;-92
2021/10/15 07:13:08;;;;;;;5.72;4.57;;;13.70;68.10;;;;;;5057515;28;20032;-91
2021/10/15 07:15:43;;;;;;;4.22;3.60;;;13.70;67.80;;;;;;5021239;28;20025;-92
2021/10/15 07:18:09;;;;;;;4.07;3.67;;;13.80;67.60;;;;;;5053787;28;20029;-91
2021/10/15 07:20:36;;;;;;;3.65;3.10;;;13.70;67.40;;;;;;5035046;28;20040;-90
2021/10/15 07:23:02;;;;;;;4.03;3.40;;;13.80;67.30;;;;;;5033832;28;20507;-92
2021/10/15 07:25:28;;;;;;;4.60;3.33;;;13.80;67.40;;;;;;5053382;28;20068;-93
2021/10/15 07:27:54;;;;;;;6.15;3.47;;;13.80;67.10;;;;;;5019402;28;20070;-91
2021/10/15 07:30:19;;;;;;;3.45;3.10;;;13.80;67.20;;;;;;5033255;28;20100;-88
2021/10/15 07:32:48;;;;;;;4.45;2.90;;;13.80;67.00;;;;;;5059316;28;20024;-89
2021/10/15 07:35:14;;;;;;;4.28;3.17;;;13.80;67.10;;;;;;5061260;28;20009;-90
2021/10/15 07:37:40;;;;;;;3.83;3.05;;;13.80;66.80;;;;;;5038232;28;20051;-91
2021/10/15 07:40:07;;;;;;;4.20;2.58;;;13.80;66.60;;;;;;5015700;28;20029;-93
2021/10/15 07:42:33;;;;;;;3.67;2.78;;;13.90;66.60;;;;;;5027758;28;20059;-92
2021/10/15 07:44:59;;;;;;;7.88;3.28;;;13.80;66.30;;;;;;5043530;28;20041;-91
2021/10/15 07:47:26;;;;;;;4.75;2.83;;;13.80;66.30;;;;;;5026235;28;20636;-89
2021/10/15 07:49:51;;;;;;;5.05;2.90;;;13.90;66.20;;;;;;5010970;28;20033;-90
2021/10/15 07:52:17;;;;;;;5.38;3.28;;;13.90;66.40;;;;;;5030125;28;20119;-86
2021/10/15 07:54:43;;;;;;;4.50;2.80;;;13.90;66.60;;;;;;5012626;28;20036;-89
2021/10/15 07:57:12;;;;;;;3.80;2.50;;;13.90;66.20;;;;;;5028689;28;20032;-88
2021/10/15 07:59:38;;;;;;;3.03;2.30;;;13.90;65.90;;;;;;5028671;28;20163;-89
2021/10/15 08:02:04;;;;;;;4.68;2.70;;;14.00;66.10;;;;;;5028183;28;20462;-91
2021/10/15 08:04:30;;;;;;;5.15;2.47;;;14.00;66.10;;;;;;5019482;28;20033;-89
2021/10/15 08:06:56;;;;;;;4.28;2.17;;;14.00;65.70;;;;;;5022922;28;20028;-90
2021/10/15 08:09:22;;;;;;;5.28;2.13;;;14.00;65.10;;;;;;5022045;28;20424;-87
2021/10/15 08:11:49;;;;;;;3.60;2.33;;;14.10;64.80;;;;;;5022769;28;20029;-90
2021/10/15 08:14:15;;;;;;;3.58;2.33;;;14.10;64.70;;;;;;5007337;28;20149;-89
2021/10/15 08:16:41;;;;;;;2.30;2.10;;;14.10;64.50;;;;;;5042716;28;20037;-86
2021/10/15 08:19:07;;;;;;;6.13;2.10;;;14.10;64.30;;;;;;5027673;28;20040;-88
2021/10/15 08:21:33;;;;;;;5.13;2.42;;;14.10;64.20;;;;;;5031813;28;20062;-91
2021/10/15 08:23:59;;;;;;;3.47;2.17;;;14.10;64.40;;;;;;5051498;28;20518;-87
2021/10/15 08:26:25;;;;;;;4.00;2.00;;;14.10;64.20;;;;;;5018185;28;20132;-91
2021/10/15 08:28:58;;;;;;;4.75;2.38;;;14.20;63.80;;;;;;5077709;28;20032;-89
2021/10/15 08:31:24;;;;;;;4.13;2.17;;;14.20;63.70;;;;;;5044187;28;20049;-87
2021/10/15 08:33:50;;;;;;;3.50;1.95;;;14.20;63.70;;;;;;5048337;28;20036;-89
2021/10/15 08:36:16;;;;;;;5.40;2.10;;;14.20;63.60;;;;;;5036007;28;20036;-89
2021/10/15 08:38:42;;;;;;;3.00;2.00;;;14.20;63.40;;;;;;5037928;28;20082;-90
2021/10/15 08:41:08;;;;;;;2.50;2.30;;;14.30;63.50;;;;;;5017306;28;20064;-89
2021/10/15 08:43:39;;;;;;;4.10;1.95;;;14.30;63.30;;;;;;5027141;28;20115;-86
2021/10/15 08:46:06;;;;;;;3.03;2.30;;;14.30;63.40;;;;;;5016173;28;20456;-87
2021/10/15 08:48:37;;;;;;;4.22;1.85;;;14.30;63.20;;;;;;5046768;28;20097;-89
2021/10/15 08:51:03;;;;;;;6.00;2.13;;;14.30;63.00;;;;;;5058716;28;20444;-85
2021/10/15 08:53:29;;;;;;;4.50;1.88;;;14.30;62.80;;;;;;5032684;28;20025;-88
2021/10/15 08:55:55;;;;;;;2.33;1.65;;;14.40;62.50;;;;;;5049036;28;20044;-88
2021/10/15 08:58:38;;;;;;;6.88;1.95;;;14.40;62.70;;;;;;5056882;28;20037;-89
2021/10/15 09:01:04;;;;;;;2.72;2.42;;;14.40;62.70;;;;;;5014316;28;20049;-90
2021/10/15 09:03:31;;;;;;;3.78;1.98;;;14.50;62.80;;;;;;5049789;28;20452;-90
2021/10/15 09:06:07;;;;;;;3.22;1.85;;;14.50;62.70;;;;;;5055023;28;20037;-89
2021/10/15 09:09:03;;;;;;;3.35;1.80;;;14.50;62.50;;;;;;5055021;28;20091;-89
2021/10/15 09:11:36;;;;;;;2.30;1.80;;;14.50;62.30;;;;;;5019709;28;20076;-89
2021/10/15 09:14:18;;;;;;;4.93;2.13;;;14.50;62.30;;;;;;5046980;28;20033;-90
2021/10/15 09:17:05;;;;;;;3.20;2.05;;;14.50;62.30;;;;;;5037025;28;20495;-91
2021/10/15 09:19:46;;;;;;;2.80;1.80;;;14.50;62.30;;;;;;5026656;28;20104;-90
2021/10/15 09:22:15;;;;;;;3.17;1.80;;;14.50;62.30;;;;;;5043514;28;20029;-90
2021/10/15 09:24:46;;;;;;;2.92;2.10;;;14.50;62.30;;;;;;5048067;28;20064;-85
2021/10/15 09:27:35;;;;;;;6.55;2.42;;;14.50;62.30;;;;;;5059271;28;20423;-88
2021/10/15 09:30:04;;;;;;;2.22;2.03;;;14.50;62.60;;;;;;5056329;28;20075;-89
2021/10/15 09:32:34;;;;;;;4.43;1.92;;;14.50;62.80;;;;;;5044649;28;20029;-94
2021/10/15 09:35:02;;;;;;;3.33;1.75;;;14.60;63.50;;;;;;5052420;28;20033;-93
2021/10/15 09:37:31;;;;;;;2.15;1.95;;;14.60;63.40;;;;;;5049440;28;20029;-89
2021/10/15 09:40:10;;;;;;;11.68;7.70;;;14.60;62.80;;;;;;5046589;28;20029;-92
2021/10/15 09:42:51;;;;;;;4.75;3.65;;;14.70;63.10;;;;;;5043663;28;20033;-92
2021/10/15 09:45:19;;;;;;;5.22;3.22;;;14.70;62.40;;;;;;5044963;28;20029;-91
2021/10/15 09:47:54;;;;;;;4.70;3.03;;;14.70;62.10;;;;;;5046990;28;20037;-94
2021/10/15 09:50:28;;;;;;;5.17;2.80;;;14.70;62.20;;;;;;5030499;28;20063;-93
2021/10/15 09:52:57;;;;;;;3.45;2.47;;;14.70;62.20;;;;;;5032328;28;20082;-93
2021/10/15 09:55:35;;;;;;;4.20;2.83;;;14.70;62.10;;;;;;5045136;28;20071;-92
2021/10/15 09:58:17;;;;;;;3.55;2.45;;;14.70;62.20;;;;;;5048104;28;20469;-91
2021/10/15 10:00:44;;;;;;;2.42;2.17;;;14.70;62.20;;;;;;5052218;28;20135;-90
2021/10/15 10:03:10;;;;;;;4.13;2.22;;;14.70;62.10;;;;;;5052067;28;20037;-92
2021/10/15 10:05:37;;;;;;;4.00;2.20;;;14.70;62.20;;;;;;5033698;28;20539;-91
2021/10/15 10:08:03;;;;;;;2.30;2.10;;;14.70;62.40;;;;;;5048597;28;20041;-91
2021/10/15 10:10:33;;;;;;;5.40;2.92;;;14.70;62.20;;;;;;5028855;28;20485;-94
2021/10/15 10:13:00;;;;;;;3.33;2.15;;;14.70;62.10;;;;;;5047016;28;20029;-88
2021/10/15 10:15:29;;;;;;;4.90;2.50;;;14.70;62.40;;;;;;5007427;28;20037;-90
2021/10/15 10:18:14;;;;;;;4.43;2.38;;;14.70;62.40;;;;;;5040643;28;20059;-91
2021/10/15 10:20:54;;;;;;;3.65;1.77;;;14.70;62.30;;;;;;5037422;28;20033;-81
2021/10/15 10:23:28;;;;;;;3.55;1.80;;;14.70;62.30;;;;;;5065944;28;20096;-82
2021/10/15 10:26:02;;;;;;;4.70;2.00;;;14.60;62.20;;;;;;5052831;28;20017;-86
2021/10/15 10:28:28;;;;;;;2.80;1.80;;;14.70;62.00;;;;;;5070623;28;20024;-87
2021/10/15 10:30:58;;;;;;;3.25;1.70;;;14.70;61.90;;;;;;5051227;28;20045;-90
2021/10/15 10:33:25;;;;;;;2.28;1.60;;;14.60;61.90;;;;;;5056425;28;20072;-86
2021/10/15 10:35:52;;;;;;;2.13;1.80;;;14.60;61.60;;;;;;5033825;28;20110;-91
2021/10/15 10:38:23;;;;;;;2.60;1.70;;;14.70;61.90;;;;;;5038166;28;20117;-92
2021/10/15 10:41:01;;;;;;;3.58;1.88;;;14.70;62.20;;;;;;5038357;28;20128;-91
2021/10/15 10:43:27;;;;;;;2.85;1.98;;;14.70;62.40;;;;;;5037088;28;20467;-91
2021/10/15 10:46:25;;;;;;;3.63;2.33;;;14.70;62.50;;;;;;5049086;28;20095;-92
2021/10/15 10:48:52;;;;;;;4.97;2.00;;;14.70;62.60;;;;;;5049365;28;20095;-90
2021/10/15 10:51:19;;;;;;;2.85;1.80;;;14.70;62.80;;;;;;5049402;28;20476;-91
2021/10/15 10:54:06;;;;;;;3.17;1.63;;;14.70;62.80;;;;;;5050144;28;20029;-88
2021/10/15 10:56:43;;;;;;;2.00;1.90;;;14.70;62.70;;;;;;5051201;28;20515;-89
2021/10/15 10:59:19;;;;;;;5.15;2.05;;;14.80;62.60;;;;;;5036021;28;20037;-89
2021/10/15 11:02:01;;;;;;;1.85;1.52;;;14.80;62.70;;;;;;5055163;28;20153;-93
2021/10/15 11:04:42;;;;;;;2.20;1.60;;;14.80;62.80;;;;;;5035991;28;20038;-92
2021/10/15 11:07:17;;;;;;;2.00;1.52;;;14.80;62.40;;;;;;5035967;28;20032;-90
2021/10/15 11:09:51;;;;;;;3.58;1.92;;;14.80;62.40;;;;;;5042360;28;20461;-91
2021/10/15 11:12:21;;;;;;;8.13;2.10;;;14.80;62.40;;;;;;5036020;28;20032;-91
2021/10/15 11:14:47;;;;;;;3.88;2.00;;;14.80;61.80;;;;;;5052997;28;20033;-91
2021/10/15 11:17:13;;;;;;;2.58;1.90;;;14.80;61.50;;;;;;5035840;28;20435;-92
2021/10/15 11:19:40;;;;;;;3.30;2.03;;;14.80;61.40;;;;;;5056878;28;20024;-90
2021/10/15 11:22:06;;;;;;;2.17;1.70;;;14.80;61.30;;;;;;5058204;28;20067;-88
2021/10/15 11:24:32;;;;;;;2.88;1.70;;;14.80;61.90;;;;;;5054632;28;20049;-90
2021/10/15 11:26:58;;;;;;;3.10;1.50;;;14.80;61.00;;;;;;5036583;28;20107;-90
2021/10/15 11:29:24;;;;;;;4.90;2.08;;;14.80;61.10;;;;;;5035422;28;20033;-90
2021/10/15 11:31:58;;;;;;;2.10;1.80;;;14.80;61.20;;;;;;5033878;28;20053;-92
2021/10/15 11:34:24;;;;;;;2.13;1.92;;;14.80;61.00;;;;;;5044021;28;20044;-89
2021/10/15 11:37:03;;;;;;;3.42;1.38;;;14.80;61.00;;;;;;5027760;28;20471;-92
2021/10/15 11:39:29;;;;;;;2.78;1.55;;;14.80;60.80;;;;;;5006613;28;20393;-93
2021/10/15 11:41:55;;;;;;;3.70;1.70;;;14.90;60.40;;;;;;5043978;28;20059;-92
2021/10/15 11:44:32;;;;;;;2.85;1.73;;;14.80;60.30;;;;;;5009678;28;20037;-92
2021/10/15 11:46:58;;;;;;;2.10;1.90;;;14.90;60.00;;;;;;5011513;28;20031;-91
2021/10/15 11:49:24;;;;;;;2.00;1.55;;;14.90;59.50;;;;;;5042426;28;20032;-90
2021/10/15 11:51:57;;;;;;;2.10;1.75;;;14.90;59.40;;;;;;5044571;28;20033;-92
2021/10/15 11:54:24;;;;;;;1.60;1.40;;;14.90;59.40;;;;;;5012699;28;20029;-91
2021/10/15 11:56:50;;;;;;;5.25;1.63;;;14.90;59.40;;;;;;5026318;28;20024;-91
2021/10/15 11:59:16;;;;;;;3.53;1.80;;;14.90;59.20;;;;;;5022661;28;20041;-90
2021/10/15 12:01:42;;;;;;;2.40;1.63;;;14.90;58.70;;;;;;5000787;28;20111;-89
2021/10/15 12:04:13;;;;;;;1.70;1.60;;;15.00;58.80;;;;;;5009642;28;20648;-92
2021/10/15 12:06:47;;;;;;;3.25;1.52;;;15.00;58.60;;;;;;5002569;28;20955;-90
2021/10/15 12:09:16;;;;;;;2.58;1.60;;;14.90;58.50;;;;;;5012471;28;20056;-92
2021/10/15 12:11:45;;;;;;;3.30;1.83;;;15.00;58.70;;;;;;5030118;28;20026;-92
2021/10/15 12:14:30;;;;;;;1.98;1.70;;;15.00;58.30;;;;;;5041239;28;20033;-91
2021/10/15 12:17:01;;;;;;;2.88;1.70;;;14.90;58.20;;;;;;5046081;28;20009;-88
2021/10/15 12:19:33;;;;;;;3.80;1.52;;;14.90;57.90;;;;;;5030898;28;20045;-89
2021/10/15 12:22:08;;;;;;;1.50;1.40;;;14.90;57.50;;;;;;5023956;28;20711;-89
2021/10/15 12:24:41;;;;;;;1.98;1.40;;;14.90;57.50;;;;;;5016332;28;20136;-92
2021/10/15 12:27:19;;;;;;;1.55;1.35;;;14.90;57.40;;;;;;5026029;28;20524;-92
2021/10/15 12:29:53;;;;;;;1.45;1.17;;;14.90;56.80;;;;;;5014721;28;20120;-91
2021/10/15 12:32:22;;;;;;;4.45;1.58;;;14.90;56.50;;;;;;5027172;28;20087;-88
2021/10/15 12:34:59;;;;;;;6.97;1.55;;;14.90;56.30;;;;;;5014140;28;20046;-91
2021/10/15 12:37:37;;;;;;;3.20;1.40;;;14.90;55.80;;;;;;5030339;28;20045;-92
2021/10/15 12:40:25;;;;;;;4.38;1.20;;;14.90;56.00;;;;;;5010104;28;20037;-93
2021/10/15 12:43:06;;;;;;;5.03;1.30;;;14.90;55.90;;;;;;4993158;28;20042;-92
2021/10/15 12:45:41;;;;;;;2.13;1.55;;;14.90;55.60;;;;;;5021316;28;20045;-92
2021/10/15 12:48:19;;;;;;;2.72;1.55;;;14.80;55.60;;;;;;5101957;23;20096;-91
2021/10/15 12:51:14;;;;;;;1.63;1.52;;;14.80;55.80;;;;;;5035425;28;20033;-92
2021/10/15 12:56:26;;;;;;;4.22;1.50;;;14.80;56.00;;;;;;5105592;23;20629;-91
2021/10/15 12:58:59;;;;;;;4.70;2.13;;;14.80;55.90;;;;;;5027494;28;20122;-91
2021/10/15 13:01:26;;;;;;;3.75;1.33;;;14.80;56.40;;;;;;5003986;28;20036;-93
2021/10/15 13:03:53;;;;;;;2.78;1.27;;;14.80;56.60;;;;;;5005964;28;20448;-93
2021/10/15 13:06:19;;;;;;;2.85;1.40;;;14.80;56.80;;;;;;5002153;28;20037;-90
2021/10/15 13:08:50;;;;;;;1.80;1.60;;;14.80;56.80;;;;;;5019565;28;20038;-93
2021/10/15 13:11:21;;;;;;;2.03;1.40;;;14.80;57.10;;;;;;5007156;28;20029;-89